FW1271 Weather Reports


Display with metric or nautical units.
time (UTC)temp
F
wind
direction
speed
MPH
gust
MPH
rain 1hr
in
rain 24hr
in
rain mn
in
humidity
%
barometer
mb
20220627032926 69 265 2.0 2.0 0.00 0.00 0.00 69 1014.9
20220627031925 70 51 0.0 3.0 0.00 0.00 0.00 67 1014.8
20220627030925 71 123 0.0 4.0 0.00 0.00 0.00 66 1014.7
20220627025923 72 202 0.0 3.0 0.00 0.00 0.00 63 1014.5
20220627024922 73 134 2.0 2.0 0.00 0.00 0.00 61 1014.4
20220627023921 74 196 2.0 5.0 0.00 0.00 0.00 59 1014.4
20220627022920 76 41 3.0 5.0 0.00 0.00 0.00 57 1014.3
20220627021919 77 336 0.0 3.0 0.00 0.00 0.00 55 1014.1
20220627020918 78 257 2.0 4.0 0.00 0.00 0.00 53 1014.1
20220627015917 79 48 1.0 5.0 0.00 0.00 0.00 52 1014.0
20220627014916 81 48 1.0 4.0 0.00 0.00 0.00 50 1013.9
20220627013916 81 34 0.0 5.0 0.00 0.00 0.00 51 1013.9
20220627012914 81 61 0.0 6.0 0.00 0.00 0.00 50 1013.9
20220627011913 83 234 0.0 6.0 0.00 0.00 0.00 47 1013.8
20220627010912 83 250 0.0 7.0 0.00 0.00 0.00 47 1013.7
20220627005910 85 59 2.0 4.0 0.00 0.00 0.00 47 1013.8
20220627004910 87 5 1.0 5.0 0.00 0.00 0.00 44 1013.7
20220627003909 87 100 0.0 4.0 0.00 0.00 0.00 45 1013.6
20220627002909 88 86 1.0 5.0 0.00 0.00 0.00 42 1013.6
20220627001907 89 57 1.0 6.0 0.00 0.00 0.00 41 1013.6
20220627000905 90 177 0.0 5.0 0.00 0.00 0.00 40 1013.6
20220626235906 90 53 0.0 8.0 0.00 0.00 0.00 39 1013.6
20220626234904 91 136 1.0 4.0 0.00 0.00 0.00 39 1013.6
20220626233903 90 234 0.0 4.0 0.00 0.00 0.00 40 1013.6
20220626232902 92 248 1.0 5.0 0.00 0.00 0.00 37 1013.7
20220626231901 92 261 0.0 4.0 0.00 0.00 0.00 38 1013.7
20220626230900 91 173 0.0 5.0 0.00 0.00 0.00 38 1013.8
20220626225858 92 208 1.0 5.0 0.00 0.00 0.00 37 1013.9
20220626224858 91 121 0.0 4.0 0.00 0.00 0.00 38 1014.0
20220626223857 92 254 1.0 5.0 0.00 0.00 0.00 37 1014.1
20220626222856 93 259 0.0 6.0 0.00 0.00 0.00 39 1014.1
20220626221855 92 90 1.0 4.0 0.00 0.00 0.00 37 1014.2
20220626220854 93 254 1.0 4.0 0.00 0.00 0.00 38 1014.1
20220626215852 91 224 2.0 4.0 0.00 0.00 0.00 39 1014.2
20220626214851 92 200 1.0 9.0 0.00 0.00 0.00 40 1014.2
20220626213850 91 98 1.0 5.0 0.00 0.00 0.00 41 1014.3
20220626212850 88 58 3.0 4.0 0.00 0.00 0.00 43 1014.4
20220626211848 90 51 3.0 5.0 0.00 0.00 0.00 41 1014.4
20220626210848 91 183 0.0 4.0 0.00 0.00 0.00 40 1014.5
20220626205846 89 230 1.0 4.0 0.00 0.00 0.00 43 1014.5
20220626204845 89 32 1.0 4.0 0.00 0.00 0.00 43 1014.5
20220626203845 87 178 0.0 5.0 0.00 0.00 0.00 45 1014.5
20220626202843 88 64 1.0 6.0 0.00 0.00 0.00 44 1014.5
20220626201842 88 69 1.0 5.0 0.00 0.00 0.00 43 1014.5
20220626200841 90 22 2.0 4.0 0.00 0.00 0.00 42 1014.6
20220626195841 88 244 0.0 4.0 0.00 0.00 0.00 43 1014.7
20220626194839 89 65 4.0 4.0 0.00 0.00 0.00 42 1014.8
20220626193839 88 123 1.0 4.0 0.00 0.00 0.00 44 1014.8
20220626192837 86 57 0.0 5.0 0.00 0.00 0.00 45 1014.8
20220626191836 86 62 2.0 6.0 0.00 0.00 0.00 45 1014.9
20220626190835 85 355 0.0 4.0 0.00 0.00 0.00 47 1014.8
20220626185835 85 80 0.0 5.0 0.00 0.00 0.00 45 1014.9
20220626184833 84 251 1.0 5.0 0.00 0.00 0.00 46 1014.9
20220626183833 84 252 1.0 2.0 0.00 0.00 0.00 47 1014.8
20220626182831 83 39 0.0 4.0 0.00 0.00 0.00 48 1015.0
20220626181830 81 23 1.0 3.0 0.00 0.00 0.00 52 1015.0
20220626180830 79 259 0.0 3.0 0.00 0.00 0.00 52 1015.1
20220626175828 79 48 2.0 3.0 0.00 0.00 0.00 54 1015.2
20220626174827 77 207 1.0 3.0 0.00 0.00 0.00 58 1015.2
20220626173826 78 53 3.0 4.0 0.00 0.00 0.00 56 1015.3
20220626172824 78 53 0.0 3.0 0.00 0.00 0.00 55 1015.3
20220626171824 76 236 1.0 4.0 0.00 0.00 0.00 58 1015.1
20220626170822 77 36 2.0 3.0 0.00 0.00 0.00 55 1015.2
20220626165821 75 360 0.0 3.0 0.00 0.00 0.00 60 1015.1
20220626164821 73 69 0.0 2.0 0.00 0.00 0.00 61 1015.2
20220626163820 73 35 0.0 4.0 0.00 0.00 0.00 63 1015.3
20220626162819 72 114 1.0 2.0 0.00 0.00 0.00 66 1015.3
20220626161818 72 113 0.0 3.0 0.00 0.00 0.00 66 1015.4
20220626160817 71 98 0.0 3.0 0.00 0.00 0.00 69 1015.6
20220626155816 66 122 0.0 2.0 0.00 0.00 0.00 76 1015.5
20220626154815 69 94 2.0 3.0 0.00 0.00 0.00 69 1015.5
20220626153814 69 303 0.0 2.0 0.00 0.00 0.00 73 1015.6
20220626152813 65 281 0.0 1.0 0.00 0.00 0.00 79 1015.4
20220626151812 66 281 0.0 2.0 0.00 0.00 0.00 81 1015.4
20220626150811 63 281 0.0 2.0 0.00 0.00 0.00 83 1015.3
20220626145809 63 280 0.0 2.0 0.00 0.00 0.00 83 1015.3
20220626144808 62 280 0.0 2.0 0.00 0.00 0.00 86 1015.4
20220626143808 61 279 1.0 1.0 0.00 0.00 0.00 86 1015.2
20220626142807 61 301 0.0 2.0 0.00 0.00 0.00 87 1015.1
20220626141805 61 302 0.0 0.0 0.00 0.00 0.00 88 1015.0
20220626140805 60 304 0.0 0.0 0.00 0.00 0.00 88 1014.9
20220626135803 60 304 0.0 0.0 0.00 0.00 0.00 89 1014.8
20220626134802 60 305 0.0 0.0 0.00 0.00 0.00 89 1014.8
20220626133801 60 305 0.0 0.0 0.00 0.00 0.00 89 1014.6
20220626132800 59 305 0.0 0.0 0.00 0.00 0.00 89 1014.3
20220626131759 59 305 0.0 0.0 0.00 0.00 0.00 89 1014.2
20220626130759 59 305 0.0 0.0 0.00 0.00 0.00 88 1014.1
20220626125757 59 306 0.0 0.0 0.00 0.00 0.00 88 1014.1
20220626124757 58 306 0.0 0.0 0.00 0.00 0.00 87 1014.0
20220626123755 58 306 0.0 0.0 0.00 0.00 0.00 88 1013.9
20220626122754 57 306 0.0 0.0 0.00 0.00 0.00 88 1013.9
20220626121756 57 306 0.0 0.0 0.00 0.00 0.00 88 1013.8
20220626120753 57 306 0.0 0.0 0.00 0.00 0.00 89 1013.7
20220626115751 56 306 0.0 0.0 0.00 0.00 0.00 89 1013.6
20220626114750 56 306 0.0 0.0 0.00 0.00 0.00 88 1013.6
20220626113750 56 306 0.0 0.0 0.00 0.00 0.00 88 1013.5
20220626112748 56 306 0.0 0.0 0.00 0.00 0.00 89 1013.5
20220626111747 56 306 0.0 0.0 0.00 0.00 0.00 89 1013.4
20220626110746 56 306 0.0 0.0 0.00 0.00 0.00 89 1013.4
20220626105746 57 306 0.0 0.0 0.00 0.00 0.00 89 1013.3
20220626104744 56 306 0.0 0.0 0.00 0.00 0.00 89 1013.3
20220626103743 57 306 0.0 0.0 0.00 0.00 0.00 89 1013.3
20220626102742 57 306 0.0 0.0 0.00 0.00 0.00 88 1013.1
20220626101741 57 306 0.0 0.0 0.00 0.00 0.00 89 1013.2
20220626100741 58 306 0.0 0.0 0.00 0.00 0.00 89 1013.2
20220626095739 58 306 0.0 0.0 0.00 0.00 0.00 88 1013.3
20220626094738 58 306 0.0 0.0 0.00 0.00 0.00 88 1013.2
20220626093737 58 306 0.0 0.0 0.00 0.00 0.00 88 1013.2
20220626092736 59 306 0.0 0.0 0.00 0.00 0.00 88 1013.2
20220626091736 59 306 0.0 0.0 0.00 0.00 0.00 87 1013.2
20220626090734 59 306 0.0 0.0 0.00 0.00 0.00 87 1013.3
20220626085733 59 306 0.0 0.0 0.00 0.00 0.00 87 1013.2
20220626084733 60 306 0.0 0.0 0.00 0.00 0.00 86 1013.2
20220626083731 60 306 0.0 0.0 0.00 0.00 0.00 86 1013.3
20220626082730 60 306 0.0 0.0 0.00 0.00 0.00 85 1013.3
20220626081729 60 306 0.0 0.0 0.00 0.00 0.00 85 1013.3
20220626080728 60 306 0.0 0.0 0.00 0.00 0.00 84 1013.4
20220626075727 60 306 0.0 0.0 0.00 0.00 0.00 83 1013.3
20220626074726 61 306 0.0 0.0 0.00 0.00 0.00 83 1013.4
20220626073725 61 306 0.0 0.0 0.00 0.00 0.00 82 1013.3
20220626072723 61 306 0.0 0.0 0.00 0.00 0.00 82 1013.4
20220626071723 61 306 0.0 0.0 0.00 0.00 0.00 81 1013.5
20220626070722 61 306 0.0 0.0 0.00 0.00 0.00 81 1013.5
20220626065721 62 306 0.0 0.0 0.00 0.00 0.00 80 1013.5
20220626064719 62 306 0.0 0.0 0.00 0.00 0.00 78 1013.5
20220626063719 63 306 0.0 0.0 0.00 0.00 0.00 77 1013.5
20220626062717 63 306 0.0 0.0 0.00 0.00 0.00 78 1013.5
20220626061717 63 306 0.0 0.0 0.00 0.00 0.00 79 1013.5
20220626060715 64 306 0.0 0.0 0.00 0.00 0.00 78 1013.5
20220626055715 64 306 0.0 0.0 0.00 0.00 0.00 77 1013.4
20220626054713 64 306 0.0 0.0 0.00 0.00 0.00 77 1013.4
20220626053712 64 306 0.0 0.0 0.00 0.00 0.00 75 1013.5
20220626052712 65 306 0.0 0.0 0.00 0.00 0.00 75 1013.4
20220626051710 65 306 0.0 0.0 0.00 0.00 0.00 74 1013.2
20220626050710 66 306 0.0 0.0 0.00 0.00 0.00 74 1013.1
20220626045708 66 306 0.0 0.0 0.00 0.00 0.00 72 1013.1
20220626044707 67 306 0.0 0.0 0.00 0.00 0.00 70 1013.0
20220626043706 67 306 0.0 0.0 0.00 0.00 0.00 69 1012.9
20220626042706 68 302 0.0 0.0 0.00 0.00 0.00 68 1012.8
20220626041704 68 302 0.0 1.0 0.00 0.00 0.00 68 1012.8
20220626040703 69 302 0.0 1.0 0.00 0.00 0.00 67 1012.6
20220626035703 69 302 0.0 2.0 0.00 0.00 0.00 68 1012.6
20220626034701 70 286 0.0 3.0 0.00 0.00 0.00 67 1012.4
20220626033700 70 319 0.0 2.0 0.00 0.00 0.00 66 1012.3